sensor_id;sensor_type;location;lat;lon;timestamp;pressure;altitude;pressure_sealevel;temperature;humidity
65013;BME280;51715;39.432;-77.518;2023-05-09T00:01:10;99019.55;;;28.01;26.14
65013;BME280;51715;39.432;-77.518;2023-05-09T00:03:41;99016.98;;;27.77;26.43
65013;BME280;51715;39.432;-77.518;2023-05-09T00:06:09;99017.62;;;27.76;26.52
65013;BME280;51715;39.432;-77.518;2023-05-09T00:08:39;99018.94;;;27.36;26.51
65013;BME280;51715;39.432;-77.518;2023-05-09T00:11:07;99020.62;;;27.45;26.48
65013;BME280;51715;39.432;-77.518;2023-05-09T00:13:36;99020.76;;;27.32;26.40
65013;BME280;51715;39.432;-77.518;2023-05-09T00:16:07;99023.41;;;27.25;26.30
65013;BME280;51715;39.432;-77.518;2023-05-09T00:18:35;99025.90;;;27.18;27.07
65013;BME280;51715;39.432;-77.518;2023-05-09T00:21:04;99026.94;;;27.28;27.23
65013;BME280;51715;39.432;-77.518;2023-05-09T00:23:32;99023.85;;;26.83;27.93
65013;BME280;51715;39.432;-77.518;2023-05-09T00:26:01;99025.07;;;26.75;27.94
65013;BME280;51715;39.432;-77.518;2023-05-09T00:28:29;99031.95;;;26.76;28.26
65013;BME280;51715;39.432;-77.518;2023-05-09T00:30:58;99035.55;;;26.55;28.65
65013;BME280;51715;39.432;-77.518;2023-05-09T00:33:25;99032.49;;;26.33;28.96
65013;BME280;51715;39.432;-77.518;2023-05-09T00:35:54;99034.31;;;26.32;29.87
65013;BME280;51715;39.432;-77.518;2023-05-09T00:38:22;99033.68;;;26.11;30.50
65013;BME280;51715;39.432;-77.518;2023-05-09T00:40:51;99036.43;;;25.93;31.14
65013;BME280;51715;39.432;-77.518;2023-05-09T00:43:19;99037.61;;;25.97;30.83
65013;BME280;51715;39.432;-77.518;2023-05-09T00:45:49;99045.11;;;25.56;30.78
65013;BME280;51715;39.432;-77.518;2023-05-09T00:48:18;99043.40;;;25.65;31.14
65013;BME280;51715;39.432;-77.518;2023-05-09T00:50:47;99042.58;;;25.46;32.08
65013;BME280;51715;39.432;-77.518;2023-05-09T00:53:15;99046.62;;;25.28;32.36
65013;BME280;51715;39.432;-77.518;2023-05-09T00:55:43;99051.03;;;25.05;32.72
65013;BME280;51715;39.432;-77.518;2023-05-09T00:58:12;99061.78;;;24.92;32.87
65013;BME280;51715;39.432;-77.518;2023-05-09T01:00:41;99068.05;;;24.78;33.25
65013;BME280;51715;39.432;-77.518;2023-05-09T01:03:10;99068.18;;;24.60;33.86
65013;BME280;51715;39.432;-77.518;2023-05-09T01:05:45;99070.50;;;24.72;34.26
65013;BME280;51715;39.432;-77.518;2023-05-09T01:08:24;99074.30;;;24.25;34.36
65013;BME280;51715;39.432;-77.518;2023-05-09T01:11:02;99078.09;;;24.17;33.84
65013;BME280;51715;39.432;-77.518;2023-05-09T01:13:45;99083.78;;;24.53;33.91
65013;BME280;51715;39.432;-77.518;2023-05-09T01:16:25;99082.79;;;24.30;34.36
65013;BME280;51715;39.432;-77.518;2023-05-09T01:19:01;99087.16;;;24.29;34.24
65013;BME280;51715;39.432;-77.518;2023-05-09T01:21:35;99089.29;;;24.29;34.15
65013;BME280;51715;39.432;-77.518;2023-05-09T01:24:24;99089.97;;;24.07;34.15
65013;BME280;51715;39.432;-77.518;2023-05-09T01:27:14;99098.84;;;23.82;34.05
65013;BME280;51715;39.432;-77.518;2023-05-09T01:29:49;99099.62;;;24.25;33.73
65013;BME280;51715;39.432;-77.518;2023-05-09T01:32:23;99101.03;;;24.29;34.49
65013;BME280;51715;39.432;-77.518;2023-05-09T01:34:54;99105.38;;;24.07;34.21
65013;BME280;51715;39.432;-77.518;2023-05-09T01:37:29;99107.65;;;24.07;34.59
65013;BME280;51715;39.432;-77.518;2023-05-09T01:40:03;99109.62;;;23.85;34.85
65013;BME280;51715;39.432;-77.518;2023-05-09T01:42:38;99110.55;;;23.93;34.41
65013;BME280;51715;39.432;-77.518;2023-05-09T01:45:10;99117.65;;;24.02;34.21
65013;BME280;51715;39.432;-77.518;2023-05-09T01:47:39;99120.41;;;24.03;33.30
65013;BME280;51715;39.432;-77.518;2023-05-09T01:50:11;99120.08;;;24.13;32.74
65013;BME280;51715;39.432;-77.518;2023-05-09T01:52:42;99121.93;;;23.74;32.65
65013;BME280;51715;39.432;-77.518;2023-05-09T01:55:12;99125.77;;;24.31;33.32
65013;BME280;51715;39.432;-77.518;2023-05-09T01:57:42;99128.43;;;24.30;33.99
65013;BME280;51715;39.432;-77.518;2023-05-09T02:00:13;99126.50;;;24.28;34.02
65013;BME280;51715;39.432;-77.518;2023-05-09T02:02:42;99122.41;;;24.12;34.30
65013;BME280;51715;39.432;-77.518;2023-05-09T02:05:13;99126.97;;;24.04;34.91
65013;BME280;51715;39.432;-77.518;2023-05-09T02:07:42;99133.18;;;24.03;34.55
65013;BME280;51715;39.432;-77.518;2023-05-09T02:10:13;99136.07;;;23.76;34.28
65013;BME280;51715;39.432;-77.518;2023-05-09T02:12:42;99133.86;;;23.93;34.36
65013;BME280;51715;39.432;-77.518;2023-05-09T02:15:11;99128.58;;;23.85;35.13
65013;BME280;51715;39.432;-77.518;2023-05-09T02:17:39;99129.28;;;23.54;35.25
65013;BME280;51715;39.432;-77.518;2023-05-09T02:20:08;99129.44;;;23.60;35.57
65013;BME280;51715;39.432;-77.518;2023-05-09T02:22:36;99131.17;;;23.45;35.24
65013;BME280;51715;39.432;-77.518;2023-05-09T02:25:08;99131.14;;;23.71;35.26
65013;BME280;51715;39.432;-77.518;2023-05-09T02:27:38;99125.69;;;23.62;34.77
65013;BME280;51715;39.432;-77.518;2023-05-09T02:30:11;99130.73;;;23.73;35.33
65013;BME280;51715;39.432;-77.518;2023-05-09T02:32:44;99134.17;;;23.25;35.44
65013;BME280;51715;39.432;-77.518;2023-05-09T02:35:15;99136.86;;;23.32;35.33
65013;BME280;51715;39.432;-77.518;2023-05-09T02:37:45;99138.86;;;23.31;35.39
65013;BME280;51715;39.432;-77.518;2023-05-09T02:40:13;99142.59;;;23.40;35.70
65013;BME280;51715;39.432;-77.518;2023-05-09T02:42:43;99143.52;;;23.24;35.30
65013;BME280;51715;39.432;-77.518;2023-05-09T02:45:12;99141.54;;;23.09;35.27
65013;BME280;51715;39.432;-77.518;2023-05-09T02:47:41;99140.02;;;23.35;35.06
65013;BME280;51715;39.432;-77.518;2023-05-09T02:50:10;99138.16;;;23.31;35.27
65013;BME280;51715;39.432;-77.518;2023-05-09T02:52:39;99140.89;;;22.88;36.78
65013;BME280;51715;39.432;-77.518;2023-05-09T02:55:07;99139.84;;;23.21;36.47
65013;BME280;51715;39.432;-77.518;2023-05-09T02:57:36;99134.34;;;23.20;36.47
65013;BME280;51715;39.432;-77.518;2023-05-09T03:00:07;99133.99;;;22.89;36.79
65013;BME280;51715;39.432;-77.518;2023-05-09T03:02:35;99126.21;;;23.17;36.34
65013;BME280;51715;39.432;-77.518;2023-05-09T03:05:05;99119.04;;;22.93;36.77
65013;BME280;51715;39.432;-77.518;2023-05-09T03:07:34;99119.63;;;23.00;37.17
65013;BME280;51715;39.432;-77.518;2023-05-09T03:10:03;99121.22;;;22.78;36.97
65013;BME280;51715;39.432;-77.518;2023-05-09T03:12:32;99122.11;;;23.03;37.32
65013;BME280;51715;39.432;-77.518;2023-05-09T03:15:00;99120.07;;;23.05;36.77
65013;BME280;51715;39.432;-77.518;2023-05-09T03:17:29;99117.58;;;23.14;36.78
65013;BME280;51715;39.432;-77.518;2023-05-09T03:19:58;99121.08;;;23.17;36.62
65013;BME280;51715;39.432;-77.518;2023-05-09T03:22:28;99122.52;;;23.21;36.71
65013;BME280;51715;39.432;-77.518;2023-05-09T03:24:57;99125.27;;;22.94;36.62
65013;BME280;51715;39.432;-77.518;2023-05-09T03:27:25;99120.81;;;23.03;36.13
65013;BME280;51715;39.432;-77.518;2023-05-09T03:29:53;99121.25;;;23.02;36.33
65013;BME280;51715;39.432;-77.518;2023-05-09T03:32:22;99133.04;;;23.07;36.15
65013;BME280;51715;39.432;-77.518;2023-05-09T03:34:50;99133.44;;;23.15;36.27
65013;BME280;51715;39.432;-77.518;2023-05-09T03:37:19;99129.33;;;23.01;36.21
65013;BME280;51715;39.432;-77.518;2023-05-09T03:39:48;99130.90;;;23.16;36.64
65013;BME280;51715;39.432;-77.518;2023-05-09T03:42:17;99129.27;;;23.41;36.42
65013;BME280;51715;39.432;-77.518;2023-05-09T03:44:45;99124.67;;;22.61;37.76
65013;BME280;51715;39.432;-77.518;2023-05-09T03:47:13;99123.70;;;22.63;37.77
65013;BME280;51715;39.432;-77.518;2023-05-09T03:49:42;99128.29;;;22.97;37.31
65013;BME280;51715;39.432;-77.518;2023-05-09T03:52:10;99130.66;;;23.00;36.90
65013;BME280;51715;39.432;-77.518;2023-05-09T03:54:39;99136.76;;;22.83;37.69
65013;BME280;51715;39.432;-77.518;2023-05-09T03:57:07;99138.66;;;22.60;37.31
65013;BME280;51715;39.432;-77.518;2023-05-09T03:59:37;99135.59;;;22.84;37.36
65013;BME280;51715;39.432;-77.518;2023-05-09T04:04:02;99124.36;;;23.01;37.01
65013;BME280;51715;39.432;-77.518;2023-05-09T04:06:32;99130.09;;;22.98;36.68
65013;BME280;51715;39.432;-77.518;2023-05-09T04:09:00;99134.64;;;22.63;36.47
65013;BME280;51715;39.432;-77.518;2023-05-09T04:11:29;99141.40;;;23.17;36.10
65013;BME280;51715;39.432;-77.518;2023-05-09T04:13:57;99148.39;;;23.04;37.15
65013;BME280;51715;39.432;-77.518;2023-05-09T04:16:26;99151.85;;;23.03;37.22
65013;BME280;51715;39.432;-77.518;2023-05-09T04:18:55;99153.88;;;23.04;37.77
65013;BME280;51715;39.432;-77.518;2023-05-09T04:21:23;99159.30;;;23.06;37.52
65013;BME280;51715;39.432;-77.518;2023-05-09T04:23:51;99166.11;;;23.10;36.98
65013;BME280;51715;39.432;-77.518;2023-05-09T04:26:19;99172.87;;;22.99;37.70
65013;BME280;51715;39.432;-77.518;2023-05-09T04:28:47;99171.23;;;22.77;37.51
65013;BME280;51715;39.432;-77.518;2023-05-09T04:31:14;99178.07;;;22.66;37.22
65013;BME280;51715;39.432;-77.518;2023-05-09T04:33:42;99183.02;;;22.99;37.08
65013;BME280;51715;39.432;-77.518;2023-05-09T04:36:10;99183.17;;;23.06;37.42
65013;BME280;51715;39.432;-77.518;2023-05-09T04:38:38;99180.01;;;22.82;37.83
65013;BME280;51715;39.432;-77.518;2023-05-09T04:41:06;99174.16;;;22.95;37.79
65013;BME280;51715;39.432;-77.518;2023-05-09T04:43:34;99173.92;;;22.97;38.01
65013;BME280;51715;39.432;-77.518;2023-05-09T04:46:02;99175.29;;;22.90;38.21
65013;BME280;51715;39.432;-77.518;2023-05-09T04:48:29;99182.39;;;22.93;37.81
65013;BME280;51715;39.432;-77.518;2023-05-09T04:50:58;99189.85;;;22.96;37.64
65013;BME280;51715;39.432;-77.518;2023-05-09T04:53:26;99192.98;;;22.97;37.61
65013;BME280;51715;39.432;-77.518;2023-05-09T04:55:54;99194.64;;;22.96;38.51
65013;BME280;51715;39.432;-77.518;2023-05-09T04:58:22;99197.86;;;22.90;38.83
65013;BME280;51715;39.432;-77.518;2023-05-09T05:00:50;99201.86;;;22.88;38.59
65013;BME280;51715;39.432;-77.518;2023-05-09T05:03:18;99215.15;;;22.79;38.59
65013;BME280;51715;39.432;-77.518;2023-05-09T05:05:46;99230.75;;;22.63;38.86
65013;BME280;51715;39.432;-77.518;2023-05-09T05:08:14;99250.06;;;22.50;39.26
65013;BME280;51715;39.432;-77.518;2023-05-09T05:10:42;99257.40;;;22.75;39.82
65013;BME280;51715;39.432;-77.518;2023-05-09T05:13:10;99259.72;;;22.14;40.35
65013;BME280;51715;39.432;-77.518;2023-05-09T05:15:38;99264.27;;;21.78;40.23
65013;BME280;51715;39.432;-77.518;2023-05-09T05:18:07;99261.10;;;21.94;41.87
65013;BME280;51715;39.432;-77.518;2023-05-09T05:20:36;99262.25;;;21.86;41.63
65013;BME280;51715;39.432;-77.518;2023-05-09T05:23:06;99255.55;;;21.02;44.62
65013;BME280;51715;39.432;-77.518;2023-05-09T05:25:34;99255.68;;;20.79;44.87
65013;BME280;51715;39.432;-77.518;2023-05-09T05:28:02;99249.24;;;20.75;45.28
65013;BME280;51715;39.432;-77.518;2023-05-09T05:30:30;99240.45;;;20.57;45.42
65013;BME280;51715;39.432;-77.518;2023-05-09T05:33:00;99227.40;;;20.74;45.39
65013;BME280;51715;39.432;-77.518;2023-05-09T05:35:28;99223.87;;;20.93;45.62
65013;BME280;51715;39.432;-77.518;2023-05-09T05:37:56;99215.99;;;20.92;45.40
65013;BME280;51715;39.432;-77.518;2023-05-09T05:40:24;99214.36;;;20.46;46.42
65013;BME280;51715;39.432;-77.518;2023-05-09T05:42:52;99207.44;;;20.17;47.10
65013;BME280;51715;39.432;-77.518;2023-05-09T05:45:20;99201.05;;;20.13;47.49
65013;BME280;51715;39.432;-77.518;2023-05-09T05:47:48;99192.22;;;20.06;47.83
65013;BME280;51715;39.432;-77.518;2023-05-09T05:50:16;99188.36;;;20.31;47.84
65013;BME280;51715;39.432;-77.518;2023-05-09T05:52:44;99198.23;;;20.84;47.69
65013;BME280;51715;39.432;-77.518;2023-05-09T05:55:12;99197.08;;;20.43;47.72
65013;BME280;51715;39.432;-77.518;2023-05-09T05:57:40;99195.31;;;20.45;47.96
65013;BME280;51715;39.432;-77.518;2023-05-09T06:00:10;99192.27;;;20.59;47.76
65013;BME280;51715;39.432;-77.518;2023-05-09T06:02:40;99187.38;;;20.44;47.83
65013;BME280;51715;39.432;-77.518;2023-05-09T06:05:09;99185.06;;;20.67;47.52
65013;BME280;51715;39.432;-77.518;2023-05-09T06:07:37;99187.55;;;20.09;48.57
65013;BME280;51715;39.432;-77.518;2023-05-09T06:10:05;99191.16;;;20.52;48.40
65013;BME280;51715;39.432;-77.518;2023-05-09T06:12:34;99194.37;;;20.13;48.58
65013;BME280;51715;39.432;-77.518;2023-05-09T06:15:03;99195.98;;;20.34;48.51
65013;BME280;51715;39.432;-77.518;2023-05-09T06:17:32;99195.70;;;20.57;48.06
65013;BME280;51715;39.432;-77.518;2023-05-09T06:20:00;99183.97;;;20.15;48.26
65013;BME280;51715;39.432;-77.518;2023-05-09T06:22:29;99172.62;;;20.24;48.27
65013;BME280;51715;39.432;-77.518;2023-05-09T06:24:57;99167.47;;;20.40;48.17
65013;BME280;51715;39.432;-77.518;2023-05-09T06:27:26;99163.49;;;20.49;47.80
65013;BME280;51715;39.432;-77.518;2023-05-09T06:29:54;99158.97;;;20.37;47.90
65013;BME280;51715;39.432;-77.518;2023-05-09T06:32:22;99160.90;;;20.42;48.16
65013;BME280;51715;39.432;-77.518;2023-05-09T06:34:51;99164.10;;;20.63;48.07
65013;BME280;51715;39.432;-77.518;2023-05-09T06:37:19;99170.40;;;20.74;47.82
65013;BME280;51715;39.432;-77.518;2023-05-09T06:39:47;99172.07;;;20.73;47.79
65013;BME280;51715;39.432;-77.518;2023-05-09T06:42:15;99172.51;;;20.42;48.27
65013;BME280;51715;39.432;-77.518;2023-05-09T06:44:44;99168.56;;;20.45;48.02
65013;BME280;51715;39.432;-77.518;2023-05-09T06:47:12;99158.47;;;20.31;48.73
65013;BME280;51715;39.432;-77.518;2023-05-09T06:49:40;99146.06;;;20.21;48.69
65013;BME280;51715;39.432;-77.518;2023-05-09T06:52:08;99140.31;;;20.13;48.54
65013;BME280;51715;39.432;-77.518;2023-05-09T06:54:36;99142.91;;;20.26;48.45
65013;BME280;51715;39.432;-77.518;2023-05-09T06:57:04;99142.21;;;20.41;48.38
65013;BME280;51715;39.432;-77.518;2023-05-09T06:59:32;99137.72;;;20.27;48.31
65013;BME280;51715;39.432;-77.518;2023-05-09T07:01:59;99137.82;;;20.43;48.16
65013;BME280;51715;39.432;-77.518;2023-05-09T07:04:27;99141.30;;;20.57;47.99
65013;BME280;51715;39.432;-77.518;2023-05-09T07:06:55;99137.46;;;20.58;47.48
65013;BME280;51715;39.432;-77.518;2023-05-09T07:09:23;99131.36;;;20.58;47.57
65013;BME280;51715;39.432;-77.518;2023-05-09T07:11:51;99129.53;;;20.66;47.61
65013;BME280;51715;39.432;-77.518;2023-05-09T07:14:20;99131.70;;;20.74;47.52
65013;BME280;51715;39.432;-77.518;2023-05-09T07:16:48;99129.36;;;20.79;47.30
65013;BME280;51715;39.432;-77.518;2023-05-09T07:19:16;99124.97;;;20.84;47.21
65013;BME280;51715;39.432;-77.518;2023-05-09T07:21:43;99122.87;;;20.81;47.31
65013;BME280;51715;39.432;-77.518;2023-05-09T07:24:11;99125.47;;;20.58;47.32
65013;BME280;51715;39.432;-77.518;2023-05-09T07:26:39;99127.92;;;20.80;47.41
65013;BME280;51715;39.432;-77.518;2023-05-09T07:29:07;99132.60;;;20.80;47.51
65013;BME280;51715;39.432;-77.518;2023-05-09T07:31:35;99136.49;;;20.81;47.18
65013;BME280;51715;39.432;-77.518;2023-05-09T07:34:03;99141.91;;;20.76;47.31
65013;BME280;51715;39.432;-77.518;2023-05-09T07:36:31;99143.94;;;20.71;47.23
65013;BME280;51715;39.432;-77.518;2023-05-09T07:38:59;99138.39;;;20.63;47.14
65013;BME280;51715;39.432;-77.518;2023-05-09T07:41:27;99137.52;;;20.69;47.17
65013;BME280;51715;39.432;-77.518;2023-05-09T07:43:55;99146.35;;;20.71;47.19
65013;BME280;51715;39.432;-77.518;2023-05-09T07:46:23;99146.17;;;20.69;47.25
65013;BME280;51715;39.432;-77.518;2023-05-09T07:48:51;99145.72;;;20.68;47.24
65013;BME280;51715;39.432;-77.518;2023-05-09T07:51:18;99149.16;;;20.72;47.19
65013;BME280;51715;39.432;-77.518;2023-05-09T07:53:46;99152.26;;;20.75;47.16
65013;BME280;51715;39.432;-77.518;2023-05-09T07:56:13;99138.18;;;20.78;46.97
65013;BME280;51715;39.432;-77.518;2023-05-09T07:58:42;99127.28;;;20.55;46.91
65013;BME280;51715;39.432;-77.518;2023-05-09T08:01:10;99127.53;;;20.84;46.98
65013;BME280;51715;39.432;-77.518;2023-05-09T08:03:37;99124.81;;;20.74;46.49
65013;BME280;51715;39.432;-77.518;2023-05-09T08:06:05;99117.44;;;20.57;46.92
65013;BME280;51715;39.432;-77.518;2023-05-09T08:08:33;99109.44;;;20.33;47.12
65013;BME280;51715;39.432;-77.518;2023-05-09T08:11:01;99095.01;;;20.29;46.87
65013;BME280;51715;39.432;-77.518;2023-05-09T08:13:30;99092.42;;;20.22;47.17
65013;BME280;51715;39.432;-77.518;2023-05-09T08:15:58;99103.53;;;20.34;47.19
65013;BME280;51715;39.432;-77.518;2023-05-09T08:18:26;99097.86;;;20.39;46.82
65013;BME280;51715;39.432;-77.518;2023-05-09T08:20:54;99094.33;;;20.17;46.82
65013;BME280;51715;39.432;-77.518;2023-05-09T08:23:22;99105.69;;;20.22;47.12
65013;BME280;51715;39.432;-77.518;2023-05-09T08:25:52;99108.48;;;20.28;47.04
65013;BME280;51715;39.432;-77.518;2023-05-09T08:28:21;99100.46;;;20.21;46.94
65013;BME280;51715;39.432;-77.518;2023-05-09T08:30:50;99091.35;;;20.46;47.06
65013;BME280;51715;39.432;-77.518;2023-05-09T08:33:18;99092.19;;;20.15;46.81
65013;BME280;51715;39.432;-77.518;2023-05-09T08:35:50;99096.11;;;20.26;46.78
65013;BME280;51715;39.432;-77.518;2023-05-09T08:38:19;99110.37;;;20.06;46.90
65013;BME280;51715;39.432;-77.518;2023-05-09T08:40:47;99113.49;;;20.49;46.91
65013;BME280;51715;39.432;-77.518;2023-05-09T08:43:16;99118.52;;;19.99;46.89
65013;BME280;51715;39.432;-77.518;2023-05-09T08:45:46;99122.19;;;20.02;46.66
65013;BME280;51715;39.432;-77.518;2023-05-09T08:48:16;99128.07;;;20.24;46.47
65013;BME280;51715;39.432;-77.518;2023-05-09T08:50:45;99126.84;;;19.98;46.36
65013;BME280;51715;39.432;-77.518;2023-05-09T08:53:13;99120.80;;;20.09;46.03
65013;BME280;51715;39.432;-77.518;2023-05-09T08:55:41;99126.38;;;20.06;46.62
65013;BME280;51715;39.432;-77.518;2023-05-09T08:58:10;99136.74;;;20.09;46.55
65013;BME280;51715;39.432;-77.518;2023-05-09T09:00:40;99131.20;;;19.89;46.15
65013;BME280;51715;39.432;-77.518;2023-05-09T09:03:09;99126.68;;;19.44;46.58
65013;BME280;51715;39.432;-77.518;2023-05-09T09:05:39;99131.67;;;19.64;46.95
65013;BME280;51715;39.432;-77.518;2023-05-09T09:08:09;99134.05;;;19.45;47.09
65013;BME280;51715;39.432;-77.518;2023-05-09T09:10:41;99131.98;;;19.51;47.36
65013;BME280;51715;39.432;-77.518;2023-05-09T09:13:09;99130.79;;;19.48;47.25
65013;BME280;51715;39.432;-77.518;2023-05-09T09:15:41;99144.08;;;19.57;47.34
65013;BME280;51715;39.432;-77.518;2023-05-09T09:18:15;99155.20;;;19.64;47.27
65013;BME280;51715;39.432;-77.518;2023-05-09T09:20:47;99155.05;;;19.62;46.67
65013;BME280;51715;39.432;-77.518;2023-05-09T09:23:18;99161.50;;;19.61;46.96
65013;BME280;51715;39.432;-77.518;2023-05-09T09:25:47;99165.08;;;19.59;46.68
65013;BME280;51715;39.432;-77.518;2023-05-09T09:28:15;99168.01;;;19.32;46.88
65013;BME280;51715;39.432;-77.518;2023-05-09T09:30:44;99161.74;;;19.13;47.11
65013;BME280;51715;39.432;-77.518;2023-05-09T09:33:18;99162.06;;;19.09;47.30
65013;BME280;51715;39.432;-77.518;2023-05-09T09:35:47;99149.58;;;19.19;47.23
65013;BME280;51715;39.432;-77.518;2023-05-09T09:38:17;99143.35;;;19.35;47.27
65013;BME280;51715;39.432;-77.518;2023-05-09T09:40:52;99154.54;;;18.91;47.46
65013;BME280;51715;39.432;-77.518;2023-05-09T09:43:25;99158.77;;;19.22;47.41
65013;BME280;51715;39.432;-77.518;2023-05-09T09:45:53;99166.87;;;19.08;47.58
65013;BME280;51715;39.432;-77.518;2023-05-09T09:48:24;99170.13;;;19.16;47.54
65013;BME280;51715;39.432;-77.518;2023-05-09T09:50:54;99166.87;;;19.14;47.41
65013;BME280;51715;39.432;-77.518;2023-05-09T09:53:22;99159.55;;;19.24;47.34
65013;BME280;51715;39.432;-77.518;2023-05-09T09:55:50;99159.15;;;19.23;47.60
65013;BME280;51715;39.432;-77.518;2023-05-09T09:58:19;99162.26;;;19.10;48.11
65013;BME280;51715;39.432;-77.518;2023-05-09T10:00:48;99168.29;;;19.13;48.30
65013;BME280;51715;39.432;-77.518;2023-05-09T10:03:36;99169.56;;;19.20;48.25
65013;BME280;51715;39.432;-77.518;2023-05-09T10:06:07;99174.10;;;19.13;48.51
65013;BME280;51715;39.432;-77.518;2023-05-09T10:08:36;99170.76;;;19.05;48.74
65013;BME280;51715;39.432;-77.518;2023-05-09T10:11:04;99170.12;;;19.03;48.86
65013;BME280;51715;39.432;-77.518;2023-05-09T10:13:34;99167.91;;;19.04;48.68
65013;BME280;51715;39.432;-77.518;2023-05-09T10:16:03;99156.04;;;18.77;49.14
65013;BME280;51715;39.432;-77.518;2023-05-09T10:18:32;99156.71;;;18.99;48.70
65013;BME280;51715;39.432;-77.518;2023-05-09T10:21:00;99162.71;;;19.14;48.33
65013;BME280;51715;39.432;-77.518;2023-05-09T10:23:30;99166.65;;;18.84;47.25
65013;BME280;51715;39.432;-77.518;2023-05-09T10:26:10;99188.57;;;18.94;47.25
65013;BME280;51715;39.432;-77.518;2023-05-09T10:28:46;99206.17;;;18.91;47.83
65013;BME280;51715;39.432;-77.518;2023-05-09T10:31:17;99200.70;;;18.94;47.50
65013;BME280;51715;39.432;-77.518;2023-05-09T10:33:50;99191.30;;;18.94;46.96
65013;BME280;51715;39.432;-77.518;2023-05-09T10:36:19;99187.55;;;19.24;46.57
65013;BME280;51715;39.432;-77.518;2023-05-09T10:38:48;99184.13;;;18.98;46.38
65013;BME280;51715;39.432;-77.518;2023-05-09T10:41:17;99179.77;;;18.17;46.15
65013;BME280;51715;39.432;-77.518;2023-05-09T10:43:45;99189.18;;;17.79;43.95
65013;BME280;51715;39.432;-77.518;2023-05-09T10:46:14;99187.46;;;17.63;44.62
65013;BME280;51715;39.432;-77.518;2023-05-09T10:48:42;99187.20;;;17.09;45.64
65013;BME280;51715;39.432;-77.518;2023-05-09T10:51:11;99198.68;;;16.84;45.90
65013;BME280;51715;39.432;-77.518;2023-05-09T10:53:41;99209.28;;;16.99;43.97
65013;BME280;51715;39.432;-77.518;2023-05-09T10:56:21;99211.40;;;16.75;44.58
65013;BME280;51715;39.432;-77.518;2023-05-09T10:58:50;99203.12;;;16.66;45.57
65013;BME280;51715;39.432;-77.518;2023-05-09T11:01:28;99215.15;;;16.55;44.34
65013;BME280;51715;39.432;-77.518;2023-05-09T11:03:59;99233.50;;;16.88;43.49
65013;BME280;51715;39.432;-77.518;2023-05-09T11:07:01;99236.95;;;16.61;44.00
65013;BME280;51715;39.432;-77.518;2023-05-09T11:09:31;99231.21;;;16.75;44.76
65013;BME280;51715;39.432;-77.518;2023-05-09T11:12:07;99225.13;;;15.98;45.40
65013;BME280;51715;39.432;-77.518;2023-05-09T11:14:41;99222.77;;;16.75;45.11
65013;BME280;51715;39.432;-77.518;2023-05-09T11:17:11;99220.04;;;17.11;42.82
65013;BME280;51715;39.432;-77.518;2023-05-09T11:19:58;99225.61;;;17.03;42.78
65013;BME280;51715;39.432;-77.518;2023-05-09T11:22:28;99232.33;;;17.31;41.69
65013;BME280;51715;39.432;-77.518;2023-05-09T11:25:02;99235.77;;;18.03;41.27
65013;BME280;51715;39.432;-77.518;2023-05-09T11:27:38;99236.49;;;18.32;39.73
65013;BME280;51715;39.432;-77.518;2023-05-09T11:30:08;99248.52;;;18.54;38.10
65013;BME280;51715;39.432;-77.518;2023-05-09T11:32:44;99257.17;;;18.07;36.43
65013;BME280;51715;39.432;-77.518;2023-05-09T11:35:14;99257.21;;;18.20;38.01
65013;BME280;51715;39.432;-77.518;2023-05-09T11:37:48;99246.65;;;18.55;35.54
65013;BME280;51715;39.432;-77.518;2023-05-09T11:40:18;99245.91;;;17.63;35.63
65013;BME280;51715;39.432;-77.518;2023-05-09T11:42:47;99248.39;;;18.41;35.67
65013;BME280;51715;39.432;-77.518;2023-05-09T11:45:16;99253.55;;;18.11;36.60
65013;BME280;51715;39.432;-77.518;2023-05-09T11:47:44;99243.71;;;18.04;33.80
65013;BME280;51715;39.432;-77.518;2023-05-09T11:50:14;99256.97;;;17.74;33.85
65013;BME280;51715;39.432;-77.518;2023-05-09T11:52:42;99262.23;;;17.68;32.76
65013;BME280;51715;39.432;-77.518;2023-05-09T11:55:12;99272.40;;;17.62;34.03
65013;BME280;51715;39.432;-77.518;2023-05-09T11:57:43;99280.97;;;17.99;32.52
65013;BME280;51715;39.432;-77.518;2023-05-09T12:00:13;99297.69;;;18.45;34.26
65013;BME280;51715;39.432;-77.518;2023-05-09T12:02:43;99299.66;;;18.75;31.12
65013;BME280;51715;39.432;-77.518;2023-05-09T12:05:14;99305.80;;;18.58;30.28
65013;BME280;51715;39.432;-77.518;2023-05-09T12:07:43;99312.15;;;18.81;29.61
65013;BME280;51715;39.432;-77.518;2023-05-09T12:10:13;99322.12;;;19.27;29.48
65013;BME280;51715;39.432;-77.518;2023-05-09T12:12:43;99330.26;;;18.88;29.89
65013;BME280;51715;39.432;-77.518;2023-05-09T12:15:12;99341.70;;;19.35;30.01
65013;BME280;51715;39.432;-77.518;2023-05-09T12:17:41;99359.76;;;19.20;30.20
65013;BME280;51715;39.432;-77.518;2023-05-09T12:20:10;99369.15;;;19.32;29.74
65013;BME280;51715;39.432;-77.518;2023-05-09T12:22:41;99377.24;;;19.94;29.10
65013;BME280;51715;39.432;-77.518;2023-05-09T12:25:10;99390.37;;;19.31;30.14
65013;BME280;51715;39.432;-77.518;2023-05-09T12:27:39;99400.23;;;19.16;29.91
65013;BME280;51715;39.432;-77.518;2023-05-09T12:30:08;99406.72;;;19.09;29.94
65013;BME280;51715;39.432;-77.518;2023-05-09T12:32:37;99413.33;;;19.44;30.74
65013;BME280;51715;39.432;-77.518;2023-05-09T12:35:07;99410.28;;;19.09;31.11
65013;BME280;51715;39.432;-77.518;2023-05-09T12:37:36;99405.19;;;18.88;34.07
65013;BME280;51715;39.432;-77.518;2023-05-09T12:40:09;99409.64;;;18.30;36.62
65013;BME280;51715;39.432;-77.518;2023-05-09T12:42:37;99410.05;;;17.69;38.07
65013;BME280;51715;39.432;-77.518;2023-05-09T12:45:08;99414.75;;;17.70;39.42
65013;BME280;51715;39.432;-77.518;2023-05-09T12:47:37;99435.78;;;16.96;42.45
65013;BME280;51715;39.432;-77.518;2023-05-09T12:50:08;99445.85;;;16.57;44.22
65013;BME280;51715;39.432;-77.518;2023-05-09T12:52:39;99423.18;;;16.68;45.42
65013;BME280;51715;39.432;-77.518;2023-05-09T12:55:08;99410.31;;;16.57;46.66